createdAt,value
2018-10-12T00:01:18.089Z,100799.31
2018-10-12T00:04:11.653Z,100807.44
2018-10-12T00:13:13.170Z,100801.62
2018-10-12T00:16:00.883Z,100800.34
2018-10-12T00:18:49.207Z,100796.95
2018-10-12T00:21:48.364Z,100800.50
2018-10-12T00:24:36.029Z,100803.20
2018-10-12T00:27:25.354Z,100806.50
2018-10-12T00:30:20.808Z,100804.48
2018-10-12T00:33:09.836Z,100802.78
2018-10-12T00:39:14.722Z,100797.23
2018-10-12T00:45:12.522Z,100804.75
2018-10-12T00:48:00.043Z,100807.78
2018-10-12T00:50:48.052Z,100805.52
2018-10-12T00:53:35.885Z,100810.92
2018-10-12T00:56:25.405Z,100810.71
2018-10-12T01:02:34.838Z,100820.90
2018-10-12T01:05:32.571Z,100821.31
2018-10-12T01:11:35.677Z,100830.08
2018-10-12T01:14:23.304Z,100841.05
2018-10-12T01:20:21.866Z,100843.84
2018-10-12T01:23:17.810Z,100843.41
2018-10-12T01:26:07.070Z,100851.30
2018-10-12T01:29:05.033Z,100852.91
2018-10-12T01:32:00.609Z,100849.66
2018-10-12T01:34:48.239Z,100856.05
2018-10-12T01:37:39.460Z,100853.92
2018-10-12T01:40:24.408Z,100857.30
2018-10-12T01:43:13.069Z,100858.23
2018-10-12T01:49:09.595Z,100875.37
2018-10-12T01:51:56.936Z,100874.33
2018-10-12T01:54:56.810Z,100879.78
2018-10-12T02:04:01.783Z,100877.28
2018-10-12T02:06:51.935Z,100873.23
2018-10-12T02:09:42.487Z,100872.68
2018-10-12T02:12:35.029Z,100870.45
2018-10-12T02:15:34.353Z,100874.90
2018-10-12T02:18:27.657Z,100882.45
2018-10-12T02:21:22.684Z,100875.48
2018-10-12T02:24:12.406Z,100870.19
2018-10-12T02:26:59.725Z,100872.80
2018-10-12T02:29:52.219Z,100869.17
2018-10-12T02:32:43.736Z,100872.72
2018-10-12T02:35:44.316Z,100866.80
2018-10-12T02:38:38.099Z,100868.33
2018-10-12T02:41:26.263Z,100863.27
2018-10-12T02:44:15.073Z,100863.86
2018-10-12T02:47:05.714Z,100867.97
2018-10-12T02:49:55.459Z,100865.87
2018-10-12T02:52:44.395Z,100870.73
2018-10-12T03:01:47.705Z,100883.76
2018-10-12T03:04:34.668Z,100885.86
2018-10-12T03:10:33.881Z,100895.98
2018-10-12T03:13:21.728Z,100901.31
2018-10-12T03:16:09.426Z,100904.44
2018-10-12T03:18:57.916Z,100900.97
2018-10-12T03:21:47.051Z,100901.48
2018-10-12T03:24:42.460Z,100902.42
2018-10-12T03:27:43.870Z,100896.23
2018-10-12T03:30:39.792Z,100895.34
2018-10-12T03:33:27.535Z,100909.00
2018-10-12T03:36:25.430Z,100908.19
2018-10-12T03:42:32.175Z,100917.58
2018-10-12T03:48:35.714Z,100924.86
2018-10-12T03:51:34.447Z,100924.30
2018-10-12T03:54:22.841Z,100923.75
2018-10-12T04:03:26.745Z,100940.62
2018-10-12T04:06:17.300Z,100940.08
2018-10-12T04:12:20.786Z,100946.90
2018-10-12T04:15:11.479Z,100949.28
2018-10-12T04:21:06.018Z,100951.45
2018-10-12T04:23:54.771Z,100960.55
2018-10-12T04:26:46.286Z,100961.92
2018-10-12T04:29:42.663Z,100964.21
2018-10-12T04:35:53.950Z,100959.77
2018-10-12T04:38:50.266Z,100970.50
2018-10-12T04:47:57.958Z,100989.20
2018-10-12T04:57:07.647Z,100996.41
2018-10-12T04:59:56.430Z,100995.67
2018-10-12T05:02:45.909Z,100991.39
2018-10-12T05:05:42.480Z,100998.95
2018-10-12T05:11:37.509Z,100997.99
2018-10-12T05:14:24.576Z,101006.27
2018-10-12T05:17:12.134Z,100998.09
2018-10-12T05:19:59.590Z,101009.23
2018-10-12T05:22:49.192Z,101013.03
2018-10-12T05:25:36.517Z,101013.02
2018-10-12T05:34:47.346Z,101014.87
2018-10-12T05:37:34.751Z,101025.83
2018-10-12T05:40:25.517Z,101021.61
2018-10-12T05:43:20.509Z,101020.36
2018-10-12T05:46:08.036Z,101031.23
2018-10-12T05:52:35.030Z,101047.63
2018-10-12T05:55:22.792Z,101051.78
2018-10-12T05:58:11.413Z,101065.26
2018-10-12T06:04:06.051Z,101079.18
2018-10-12T06:06:53.471Z,101070.84
2018-10-12T06:09:45.908Z,101074.49
2018-10-12T06:12:33.654Z,101079.54
2018-10-12T06:15:26.250Z,101075.52
2018-10-12T06:18:13.997Z,101073.96
2018-10-12T06:21:01.911Z,101079.77
2018-10-12T06:23:49.778Z,101085.67
2018-10-12T06:26:37.879Z,101082.23
2018-10-12T06:38:52.099Z,101091.80
2018-10-12T06:41:40.242Z,101106.34
2018-10-12T06:44:28.625Z,101107.58
2018-10-12T06:50:24.743Z,101118.75
2018-10-12T06:53:14.997Z,101124.23
2018-10-12T06:59:11.230Z,101126.05
2018-10-12T07:02:01.692Z,101128.37
2018-10-12T07:04:52.741Z,101131.14
2018-10-12T07:07:42.533Z,101135.55
2018-10-12T07:16:43.876Z,101138.09
2018-10-12T07:19:32.506Z,101146.83
2018-10-12T07:22:20.379Z,101150.23
2018-10-12T07:25:08.211Z,101157.05
2018-10-12T07:34:10.484Z,101173.23
2018-10-12T07:37:11.254Z,101172.77
2018-10-12T07:43:06.697Z,101177.64
2018-10-12T07:46:04.720Z,101176.78
2018-10-12T07:48:52.373Z,101182.78
2018-10-12T07:54:57.356Z,101197.50
2018-10-12T07:57:51.674Z,101190.16
2018-10-12T08:00:47.436Z,101193.25
2018-10-12T08:03:36.020Z,101199.95
2018-10-12T08:06:24.310Z,101196.54
2018-10-12T08:09:13.370Z,101191.08
2018-10-12T08:12:01.365Z,101195.95
2018-10-12T08:14:50.539Z,101200.86
2018-10-12T08:17:39.407Z,101207.19
2018-10-12T08:20:27.263Z,101209.65
2018-10-12T08:23:15.219Z,101215.39
2018-10-12T08:26:02.774Z,101219.36
2018-10-12T08:28:52.041Z,101219.48
2018-10-12T08:31:40.090Z,101222.52
2018-10-12T08:34:29.622Z,101219.73
2018-10-12T08:40:37.006Z,101233.16
2018-10-12T08:46:31.393Z,101232.95
2018-10-12T08:49:27.557Z,101233.30
2018-10-12T08:52:21.243Z,101239.84
2018-10-12T08:55:09.979Z,101241.25
2018-10-12T08:57:57.720Z,101241.18
2018-10-12T09:00:47.452Z,101243.19
2018-10-12T09:03:35.479Z,101247.18
2018-10-12T09:06:24.554Z,101244.05
2018-10-12T09:09:12.528Z,101249.34
2018-10-12T09:12:03.272Z,101251.42
2018-10-12T09:14:52.115Z,101249.08
2018-10-12T09:17:39.775Z,101251.76
2018-10-12T09:20:27.425Z,101253.71
2018-10-12T09:23:16.553Z,101251.29
2018-10-12T09:26:04.226Z,101250.48
2018-10-12T09:28:51.547Z,101256.48
2018-10-12T09:31:39.530Z,101258.75
2018-10-12T09:34:27.439Z,101246.94
2018-10-12T09:37:16.926Z,101247.86
2018-10-12T09:40:05.170Z,101252.88
2018-10-12T09:42:53.131Z,101258.09
2018-10-12T09:45:40.548Z,101257.23
2018-10-12T09:48:28.451Z,101262.52
2018-10-12T09:51:16.415Z,101256.27
2018-10-12T09:54:04.566Z,101257.67
2018-10-12T09:56:55.824Z,101251.08
2018-10-12T10:02:53.863Z,101250.14
2018-10-12T10:09:48.418Z,101251.89
2018-10-12T10:12:35.967Z,101256.89
2018-10-12T10:15:26.001Z,101254.56
2018-10-12T10:18:13.904Z,101257.20
2018-10-12T10:24:09.496Z,101256.94
2018-10-12T10:26:57.823Z,101253.39
2018-10-12T10:29:46.394Z,101254.91
2018-10-12T10:32:38.393Z,101257.78
2018-10-12T10:38:36.217Z,101263.86
2018-10-12T10:41:26.413Z,101259.84
2018-10-12T10:44:15.263Z,101255.94
2018-10-12T10:47:03.795Z,101250.39
2018-10-12T10:49:54.061Z,101258.10
2018-10-12T10:55:52.367Z,101258.05
2018-10-12T10:58:39.935Z,101258.05
2018-10-12T11:01:27.592Z,101251.02
2018-10-12T11:04:18.141Z,101258.73
2018-10-12T11:07:07.021Z,101253.99
2018-10-12T11:13:18.418Z,101262.32
2018-10-12T11:16:05.778Z,101249.66
2018-10-12T11:18:53.504Z,101248.75
2018-10-12T11:21:40.953Z,101252.23
2018-10-12T11:24:28.528Z,101247.56
2018-10-12T11:27:20.130Z,101244.20
2018-10-12T11:30:09.976Z,101236.59
2018-10-12T11:32:57.956Z,101229.97
2018-10-12T11:35:45.727Z,101235.48
2018-10-12T11:38:33.472Z,101234.14
2018-10-12T11:41:21.386Z,101235.44
2018-10-12T11:44:10.763Z,101231.31
2018-10-12T11:47:04.321Z,101237.75
2018-10-12T11:49:51.894Z,101239.75
2018-10-12T11:52:39.081Z,101234.03
2018-10-12T11:55:27.243Z,101227.40
2018-10-12T11:58:15.043Z,101235.02
2018-10-12T12:01:04.031Z,101225.07
2018-10-12T12:03:52.983Z,101220.14
2018-10-12T12:06:41.255Z,101226.77
2018-10-12T12:09:43.160Z,101222.43
2018-10-12T12:12:32.350Z,101221.16
2018-10-12T12:15:22.537Z,101228.23
2018-10-12T12:18:11.587Z,101221.92
2018-10-12T12:21:00.120Z,101220.36
2018-10-12T12:27:03.210Z,101220.78
2018-10-12T12:29:50.650Z,101217.92
2018-10-12T12:32:40.548Z,101214.23
2018-10-12T12:35:33.296Z,101218.97
2018-10-12T12:38:20.143Z,101214.31
2018-10-12T12:41:09.273Z,101212.83
2018-10-12T12:44:00.231Z,101209.41
2018-10-12T12:46:51.492Z,101213.66
2018-10-12T12:49:43.000Z,101217.98
2018-10-12T12:52:30.594Z,101206.82
2018-10-12T12:55:18.439Z,101213.57
2018-10-12T12:58:08.078Z,101212.78
2018-10-12T13:00:59.219Z,101214.98
2018-10-12T13:03:47.807Z,101217.61
2018-10-12T13:06:48.849Z,101215.82
2018-10-12T13:09:35.939Z,101219.13
2018-10-12T13:12:30.464Z,101217.45
2018-10-12T13:15:18.833Z,101218.30
2018-10-12T13:18:09.374Z,101226.84
2018-10-12T13:24:05.052Z,101234.31
2018-10-12T13:30:00.422Z,101228.64
2018-10-12T13:32:53.965Z,101235.30
2018-10-12T13:35:42.074Z,101234.55
2018-10-12T13:38:30.742Z,101239.22
2018-10-12T13:41:18.996Z,101239.77
2018-10-12T13:44:06.092Z,101227.98
2018-10-12T13:46:56.363Z,101219.16
2018-10-12T13:49:51.998Z,101221.31
2018-10-12T13:52:40.152Z,101221.86
2018-10-12T13:55:29.812Z,101232.53
2018-10-12T13:58:25.120Z,101249.10
2018-10-12T14:01:15.834Z,101246.87
2018-10-12T14:04:18.763Z,101249.38
2018-10-12T14:07:06.310Z,101247.45
2018-10-12T14:09:54.066Z,101251.34
2018-10-12T14:12:41.648Z,101255.69
2018-10-12T14:15:29.426Z,101250.36
2018-10-12T14:18:17.855Z,101243.75
2018-10-12T14:21:05.355Z,101233.56
2018-10-12T14:23:52.906Z,101238.86
2018-10-12T14:26:40.910Z,101242.69
2018-10-12T14:29:28.184Z,101245.57
2018-10-12T14:32:17.724Z,101242.02
2018-10-12T14:35:06.581Z,101236.15
2018-10-12T14:37:59.396Z,101233.68
2018-10-12T14:40:47.422Z,101230.38
2018-10-12T14:43:35.107Z,101233.77
2018-10-12T14:46:24.658Z,101233.93
2018-10-12T14:49:13.429Z,101235.30
2018-10-12T14:52:03.268Z,101236.14
2018-10-12T14:54:51.603Z,101239.05
2018-10-12T14:57:39.266Z,101242.28
2018-10-12T15:00:26.615Z,101243.55
2018-10-12T15:03:14.000Z,101237.25
2018-10-12T15:06:13.812Z,101239.28
2018-10-12T15:09:01.555Z,101230.78
2018-10-12T15:11:49.062Z,101239.95
2018-10-12T15:17:42.942Z,101246.21
2018-10-12T15:20:30.912Z,101250.55
2018-10-12T15:23:18.870Z,101250.26
2018-10-12T15:26:06.809Z,101248.09
2018-10-12T15:28:53.777Z,101248.81
2018-10-12T15:31:41.317Z,101251.35
2018-10-12T15:34:28.715Z,101260.39
2018-10-12T15:37:24.830Z,101257.55
2018-10-12T15:40:12.910Z,101264.03
2018-10-12T15:43:01.130Z,101267.55
2018-10-12T15:45:48.644Z,101273.16
2018-10-12T15:48:36.691Z,101269.71
2018-10-12T15:54:30.784Z,101271.10
2018-10-12T16:00:25.443Z,101275.81
2018-10-12T16:03:14.031Z,101269.57
2018-10-12T16:06:02.267Z,101278.01
2018-10-12T16:08:50.140Z,101273.65
2018-10-12T16:11:38.266Z,101282.14
2018-10-12T16:14:26.836Z,101281.02
2018-10-12T16:17:14.877Z,101281.55
2018-10-12T16:20:02.389Z,101281.30
2018-10-12T16:22:50.949Z,101280.09
2018-10-12T16:26:13.011Z,101284.53
2018-10-12T16:29:00.590Z,101286.23
2018-10-12T16:31:52.766Z,101289.51
2018-10-12T16:34:46.932Z,101289.25
2018-10-12T16:37:34.984Z,101299.80
2018-10-12T16:43:30.280Z,101301.89
2018-10-12T16:46:17.943Z,101312.18
2018-10-12T16:49:05.735Z,101314.10
2018-10-12T16:51:53.057Z,101321.44
2018-10-12T16:54:43.354Z,101318.22
2018-10-12T16:57:30.836Z,101325.13
2018-10-12T17:00:19.205Z,101328.16
2018-10-12T17:03:06.242Z,101338.42
2018-10-12T17:05:54.255Z,101337.30
2018-10-12T17:08:41.491Z,101340.06
2018-10-12T17:11:31.971Z,101342.14
2018-10-12T17:14:19.693Z,101342.96
2018-10-12T17:17:08.158Z,101343.25
2018-10-12T17:23:02.668Z,101342.77
2018-10-12T17:25:50.374Z,101338.08
2018-10-12T17:28:37.931Z,101337.67
2018-10-12T17:31:26.013Z,101344.80
2018-10-12T17:37:19.728Z,101348.87
2018-10-12T17:40:07.634Z,101355.33
2018-10-12T17:42:55.735Z,101351.30
2018-10-12T17:45:50.881Z,101354.06
2018-10-12T17:48:39.770Z,101351.38
2018-10-12T17:51:27.522Z,101353.35
2018-10-12T17:54:15.063Z,101353.13
2018-10-12T17:57:04.802Z,101356.50
2018-10-12T17:59:53.740Z,101357.88
2018-10-12T18:02:43.737Z,101354.12
2018-10-12T18:11:46.268Z,101354.89
2018-10-12T18:14:34.512Z,101359.07
2018-10-12T18:17:23.528Z,101357.19
2018-10-12T18:20:12.186Z,101359.56
2018-10-12T18:22:59.490Z,101356.94
2018-10-12T18:25:57.557Z,101355.28
2018-10-12T18:31:54.541Z,101364.31
2018-10-12T18:37:54.778Z,101364.63
2018-10-12T18:40:42.783Z,101358.34
2018-10-12T18:43:31.504Z,101363.67
2018-10-12T18:46:20.523Z,101373.84
2018-10-12T18:49:08.945Z,101373.37
2018-10-12T18:51:57.377Z,101374.66
2018-10-12T18:54:44.975Z,101368.06
2018-10-12T18:57:32.425Z,101371.42
2018-10-12T19:00:20.800Z,101373.05
2018-10-12T19:03:08.728Z,101366.52
2018-10-12T19:05:57.137Z,101364.73
2018-10-12T19:08:50.958Z,101367.70
2018-10-12T19:11:37.562Z,101360.91
2018-10-12T19:14:27.883Z,101362.97
2018-10-12T19:17:16.588Z,101361.67
2018-10-12T19:20:04.825Z,101361.55
2018-10-12T19:22:52.573Z,101356.53
2018-10-12T19:25:41.502Z,101359.33
2018-10-12T19:28:30.071Z,101363.28
2018-10-12T19:31:21.690Z,101363.76
2018-10-12T19:34:13.875Z,101360.73
2018-10-12T19:37:03.944Z,101366.28
2018-10-12T19:39:54.816Z,101367.61
2018-10-12T19:42:43.045Z,101363.75
2018-10-12T19:48:45.512Z,101367.17
2018-10-12T19:54:44.026Z,101371.80
2018-10-12T19:57:33.761Z,101369.19
2018-10-12T20:00:22.188Z,101369.60
2018-10-12T20:06:21.193Z,101372.52
2018-10-12T20:09:09.626Z,101371.42
2018-10-12T20:12:15.200Z,101375.20
2018-10-12T20:15:02.414Z,101372.33
2018-10-12T20:17:51.632Z,101376.83
2018-10-12T20:20:42.630Z,101378.19
2018-10-12T20:23:42.552Z,101374.55
2018-10-12T20:26:30.658Z,101382.05
2018-10-12T20:32:31.641Z,101387.97
2018-10-12T20:35:19.756Z,101392.50
2018-10-12T20:38:26.411Z,101391.11
2018-10-12T20:44:22.574Z,101394.32
2018-10-12T20:47:11.505Z,101392.96
2018-10-12T20:49:59.797Z,101399.81
2018-10-12T20:52:48.656Z,101394.20
2018-10-12T20:55:38.267Z,101395.20
2018-10-12T20:58:25.905Z,101398.94
2018-10-12T21:01:14.555Z,101400.64
2018-10-12T21:04:02.460Z,101402.02
2018-10-12T21:06:53.019Z,101396.98
2018-10-12T21:12:48.446Z,101405.21
2018-10-12T21:15:36.505Z,101403.59
2018-10-12T21:18:24.462Z,101404.71
2018-10-12T21:21:12.467Z,101402.23
2018-10-12T21:28:43.485Z,101401.42
2018-10-12T21:31:33.534Z,101405.38
2018-10-12T21:34:27.459Z,101408.06
2018-10-12T21:37:14.891Z,101407.09
2018-10-12T21:40:12.180Z,101407.91
2018-10-12T21:43:16.363Z,101403.19
2018-10-12T21:46:03.925Z,101404.30
2018-10-12T21:48:52.727Z,101406.09
2018-10-12T21:51:40.154Z,101399.67
2018-10-12T21:54:40.912Z,101400.72
2018-10-12T21:57:29.687Z,101397.09
2018-10-12T22:00:18.736Z,101401.38
2018-10-12T22:03:06.229Z,101400.77
2018-10-12T22:05:55.944Z,101400.81
2018-10-12T22:08:44.843Z,101395.70
2018-10-12T22:11:35.094Z,101405.21
2018-10-12T22:14:24.246Z,101401.20
2018-10-12T22:17:13.337Z,101398.58
2018-10-12T22:20:05.733Z,101403.70
2018-10-12T22:22:53.732Z,101407.39
2018-10-12T22:28:53.705Z,101408.41
2018-10-12T22:31:41.721Z,101407.77
2018-10-12T22:34:30.847Z,101414.03
2018-10-12T22:37:18.755Z,101413.63
2018-10-12T22:43:12.648Z,101414.08
2018-10-12T22:46:01.977Z,101410.31
2018-10-12T22:48:52.365Z,101407.62
2018-10-12T22:51:41.729Z,101406.65
2018-10-12T22:54:29.398Z,101403.97
2018-10-12T22:57:18.929Z,101408.05
2018-10-12T23:00:08.819Z,101409.50
2018-10-12T23:02:57.941Z,101405.63
2018-10-12T23:05:49.428Z,101398.95
2018-10-12T23:08:38.881Z,101396.56
2018-10-12T23:11:27.913Z,101399.48
2018-10-12T23:14:18.546Z,101402.11
2018-10-12T23:17:08.377Z,101407.09
2018-10-12T23:20:01.201Z,101408.39
2018-10-12T23:22:49.123Z,101408.45
2018-10-12T23:25:38.810Z,101401.95
2018-10-12T23:28:26.479Z,101403.85
2018-10-12T23:31:14.231Z,101407.05
2018-10-12T23:34:01.960Z,101405.23
2018-10-12T23:36:49.708Z,101408.38
2018-10-12T23:39:43.589Z,101400.12
2018-10-12T23:42:31.090Z,101405.02
2018-10-12T23:48:28.858Z,101407.13
2018-10-12T23:51:17.592Z,101409.09
2018-10-12T23:54:05.305Z,101408.28
2018-10-12T23:56:52.950Z,101412.86
2018-10-12T23:59:40.852Z,101411.20
